createdAt,value
2022-11-17T00:00:48.958Z,9.41
2022-11-17T00:02:52.051Z,9.41
2022-11-17T00:04:55.061Z,9.39
2022-11-17T00:06:58.496Z,9.40
2022-11-17T00:09:01.486Z,9.42
2022-11-17T00:11:05.188Z,9.43
2022-11-17T00:13:25.727Z,9.43
2022-11-17T00:15:30.194Z,9.47
2022-11-17T00:17:33.179Z,9.45
2022-11-17T00:19:56.059Z,9.44
2022-11-17T00:21:59.012Z,9.45
2022-11-17T00:24:01.973Z,9.44
2022-11-17T00:26:04.916Z,9.43
2022-11-17T00:28:07.841Z,9.45
2022-11-17T00:30:31.488Z,9.46
2022-11-17T00:33:08.275Z,9.45
2022-11-17T00:35:11.327Z,9.46
2022-11-17T00:37:14.708Z,9.47
2022-11-17T00:39:19.569Z,9.47
2022-11-17T00:41:22.513Z,9.48
2022-11-17T00:43:25.456Z,9.48
2022-11-17T00:45:28.431Z,9.46
2022-11-17T00:47:31.476Z,9.44
2022-11-17T00:49:36.660Z,9.47
2022-11-17T00:51:40.018Z,9.46
2022-11-17T00:53:42.956Z,9.49
2022-11-17T00:55:46.035Z,9.48
2022-11-17T00:57:48.999Z,9.44
2022-11-17T00:59:52.062Z,9.42
2022-11-17T01:01:55.667Z,9.43
2022-11-17T01:04:04.126Z,9.44
2022-11-17T01:06:11.480Z,9.43
2022-11-17T01:08:14.438Z,9.46
2022-11-17T01:10:17.580Z,9.48
2022-11-17T01:12:20.505Z,9.47
2022-11-17T01:14:25.049Z,9.47
2022-11-17T01:16:29.136Z,9.51
2022-11-17T01:18:32.423Z,9.53
2022-11-17T01:20:35.360Z,9.54
2022-11-17T01:22:39.674Z,9.57
2022-11-17T01:24:42.554Z,9.57
2022-11-17T01:26:46.591Z,9.60
2022-11-17T01:28:50.377Z,9.60
2022-11-17T01:31:00.201Z,9.63
2022-11-17T01:33:03.224Z,9.64
2022-11-17T01:35:07.121Z,9.65
2022-11-17T01:37:21.795Z,9.65
2022-11-17T01:39:27.248Z,9.65
2022-11-17T01:41:30.149Z,9.67
2022-11-17T01:43:41.916Z,9.65
2022-11-17T01:45:45.362Z,9.65
2022-11-17T01:47:50.545Z,9.66
2022-11-17T01:49:56.921Z,9.66
2022-11-17T01:52:04.202Z,9.63
2022-11-17T01:54:07.930Z,9.64
2022-11-17T01:56:14.427Z,9.65
2022-11-17T01:58:20.953Z,9.66
2022-11-17T02:00:24.184Z,9.64
2022-11-17T02:02:27.399Z,9.67
2022-11-17T02:04:32.733Z,9.69
2022-11-17T02:06:37.214Z,9.80
2022-11-17T02:08:41.483Z,9.93
2022-11-17T02:10:51.261Z,10.06
2022-11-17T02:12:56.157Z,10.16
2022-11-17T02:14:59.140Z,10.25
2022-11-17T02:17:10.085Z,10.32
2022-11-17T02:19:17.605Z,10.39
2022-11-17T02:21:33.262Z,10.45
2022-11-17T02:23:59.325Z,10.51
2022-11-17T02:26:52.894Z,10.51
2022-11-17T02:29:01.727Z,10.46
2022-11-17T02:31:13.331Z,10.44
2022-11-17T02:33:20.882Z,10.48
2022-11-17T02:35:27.571Z,10.53
2022-11-17T02:37:34.878Z,10.60
2022-11-17T02:39:41.204Z,10.66
2022-11-17T02:41:47.947Z,10.71
2022-11-17T02:44:07.665Z,10.75
2022-11-17T02:46:14.344Z,10.80
2022-11-17T02:48:20.661Z,10.87
2022-11-17T02:50:28.239Z,10.89
2022-11-17T02:52:32.007Z,10.93
2022-11-17T02:54:35.032Z,10.92
2022-11-17T02:56:42.100Z,10.94
2022-11-17T02:58:45.425Z,10.98
2022-11-17T03:00:56.753Z,11.00
2022-11-17T03:03:16.752Z,10.99
2022-11-17T03:05:24.248Z,11.00
2022-11-17T03:07:41.067Z,10.99
2022-11-17T03:09:48.421Z,10.98
2022-11-17T03:11:55.235Z,10.94
2022-11-17T03:14:03.939Z,10.95
2022-11-17T03:16:16.182Z,10.98
2022-11-17T03:18:22.861Z,10.99
2022-11-17T03:20:27.569Z,11.02
2022-11-17T03:22:35.237Z,11.04
2022-11-17T03:24:41.546Z,11.06
2022-11-17T03:26:48.477Z,11.07
2022-11-17T03:28:51.524Z,11.10
2022-11-17T03:30:54.838Z,11.12
2022-11-17T03:33:02.212Z,11.17
2022-11-17T03:35:12.494Z,11.20
2022-11-17T03:37:16.929Z,11.24
2022-11-17T03:39:23.691Z,11.27
2022-11-17T03:41:27.286Z,11.31
2022-11-17T03:43:32.447Z,11.35
2022-11-17T03:45:36.960Z,11.38
2022-11-17T03:47:40.155Z,11.38
2022-11-17T03:49:46.335Z,11.40
2022-11-17T03:51:50.682Z,11.42
2022-11-17T03:53:53.886Z,11.42
2022-11-17T03:56:01.270Z,11.43
2022-11-17T03:58:07.881Z,11.44
2022-11-17T04:00:13.715Z,11.40
2022-11-17T04:02:18.357Z,11.36
2022-11-17T04:04:23.311Z,11.34
2022-11-17T04:06:26.319Z,11.34
2022-11-17T04:08:31.741Z,11.33
2022-11-17T04:10:54.712Z,11.34
2022-11-17T04:13:26.663Z,11.31
2022-11-17T04:15:43.711Z,11.32
2022-11-17T04:17:46.665Z,11.35
2022-11-17T04:19:49.647Z,11.36
2022-11-17T04:21:52.604Z,11.37
2022-11-17T04:23:57.935Z,11.37
2022-11-17T04:26:18.377Z,11.36
2022-11-17T04:28:40.055Z,11.34
2022-11-17T04:30:43.068Z,11.30
2022-11-17T04:32:45.986Z,11.28
2022-11-17T04:34:48.910Z,11.29
2022-11-17T04:36:51.902Z,11.29
2022-11-17T04:38:57.891Z,11.29
2022-11-17T04:41:23.530Z,11.30
2022-11-17T04:43:26.469Z,11.29
2022-11-17T04:45:29.348Z,11.32
2022-11-17T04:47:32.343Z,11.34
2022-11-17T04:49:35.520Z,11.33
2022-11-17T04:51:39.063Z,11.33
2022-11-17T04:53:42.501Z,11.31
2022-11-17T04:55:47.182Z,11.31
2022-11-17T04:57:50.093Z,11.33
2022-11-17T04:59:53.038Z,11.35
2022-11-17T05:01:57.851Z,11.38
2022-11-17T05:04:05.994Z,11.40
2022-11-17T05:06:09.272Z,11.43
2022-11-17T05:08:12.243Z,11.44
2022-11-17T05:10:15.448Z,11.44
2022-11-17T05:12:33.678Z,11.44
2022-11-17T05:14:36.638Z,11.42
2022-11-17T05:16:57.389Z,11.44
2022-11-17T05:19:00.368Z,11.45
2022-11-17T05:21:03.561Z,11.42
2022-11-17T05:23:23.982Z,11.33
2022-11-17T05:25:26.975Z,11.27
2022-11-17T05:27:31.323Z,11.26
2022-11-17T05:29:34.260Z,11.26
2022-11-17T05:31:37.259Z,11.27
2022-11-17T05:33:40.687Z,11.26
2022-11-17T05:35:43.817Z,11.25
2022-11-17T05:37:46.804Z,11.25
2022-11-17T05:39:49.801Z,11.25
2022-11-17T05:41:52.815Z,11.25
2022-11-17T05:43:57.664Z,11.25
2022-11-17T05:46:00.744Z,11.25
2022-11-17T05:48:03.915Z,11.20
2022-11-17T05:50:07.834Z,11.18
2022-11-17T05:52:10.792Z,11.16
2022-11-17T05:54:13.726Z,11.16
2022-11-17T05:56:29.713Z,11.11
2022-11-17T05:58:34.656Z,11.07
2022-11-17T06:00:40.595Z,11.04
2022-11-17T06:02:48.687Z,11.04
2022-11-17T06:04:52.669Z,11.01
2022-11-17T06:06:59.070Z,11.01
2022-11-17T06:09:02.286Z,11.00
2022-11-17T06:11:05.488Z,11.03
2022-11-17T06:13:08.417Z,11.04
2022-11-17T06:15:11.731Z,11.06
2022-11-17T06:17:22.532Z,11.08
2022-11-17T06:19:28.940Z,11.12
2022-11-17T06:21:49.302Z,11.14
2022-11-17T06:23:55.265Z,11.13
2022-11-17T06:25:58.651Z,11.14
2022-11-17T06:28:04.077Z,11.16
2022-11-17T06:30:08.321Z,11.17
2022-11-17T06:32:11.344Z,11.16
2022-11-17T06:34:15.918Z,11.15
2022-11-17T06:36:18.904Z,11.15
2022-11-17T06:38:21.939Z,11.15
2022-11-17T06:40:24.965Z,11.16
2022-11-17T06:42:41.940Z,11.17
2022-11-17T06:44:44.965Z,11.17
2022-11-17T06:46:49.314Z,11.18
2022-11-17T06:48:55.573Z,11.22
2022-11-17T06:50:59.924Z,11.26
2022-11-17T06:53:04.938Z,11.30
2022-11-17T06:55:09.241Z,11.34
2022-11-17T06:57:12.404Z,11.36
2022-11-17T06:59:16.063Z,11.38
2022-11-17T07:01:19.276Z,11.40
2022-11-17T07:03:22.339Z,11.47
2022-11-17T07:05:25.427Z,11.63
2022-11-17T07:07:29.885Z,11.74
2022-11-17T07:09:32.985Z,11.80
2022-11-17T07:11:37.091Z,11.86
2022-11-17T07:13:40.899Z,11.93
2022-11-17T07:15:44.007Z,11.99
2022-11-17T07:17:47.072Z,12.02
2022-11-17T07:19:50.039Z,12.09
2022-11-17T07:21:53.191Z,12.27
2022-11-17T07:23:57.640Z,12.53
2022-11-17T07:26:00.967Z,12.76
2022-11-17T07:28:04.099Z,13.00
2022-11-17T07:30:08.162Z,13.16
2022-11-17T07:32:14.917Z,13.20
2022-11-17T07:34:18.043Z,13.19
2022-11-17T07:36:21.135Z,13.24
2022-11-17T07:38:24.285Z,13.40
2022-11-17T07:40:28.963Z,13.48
2022-11-17T07:42:32.579Z,13.40
2022-11-17T07:44:35.695Z,13.29
2022-11-17T07:46:38.766Z,13.22
2022-11-17T07:48:42.491Z,13.16
2022-11-17T07:50:45.696Z,13.12
2022-11-17T07:52:49.248Z,13.08
2022-11-17T07:54:52.370Z,13.06
2022-11-17T07:56:56.712Z,13.06
2022-11-17T07:58:59.724Z,13.05
2022-11-17T08:01:06.118Z,13.05
2022-11-17T08:03:10.141Z,13.04
2022-11-17T08:05:13.207Z,13.05
2022-11-17T08:07:16.367Z,13.07
2022-11-17T08:09:19.451Z,13.10
2022-11-17T08:11:22.916Z,13.13
2022-11-17T08:13:27.258Z,13.15
2022-11-17T08:15:30.738Z,13.15
2022-11-17T08:17:33.825Z,13.09
2022-11-17T08:19:37.025Z,13.07
2022-11-17T08:21:41.135Z,13.07
2022-11-17T08:23:44.238Z,13.06
2022-11-17T08:25:47.289Z,13.00
2022-11-17T08:27:52.175Z,13.03
2022-11-17T08:29:56.684Z,13.00
2022-11-17T08:31:59.772Z,12.94
2022-11-17T08:34:02.964Z,12.89
2022-11-17T08:36:07.257Z,12.92
2022-11-17T08:38:11.638Z,12.96
2022-11-17T08:40:15.755Z,12.96
2022-11-17T08:42:18.908Z,13.00
2022-11-17T08:44:22.208Z,12.98
2022-11-17T08:46:27.160Z,12.93
2022-11-17T08:48:31.679Z,12.96
2022-11-17T08:50:35.094Z,12.94
2022-11-17T08:52:38.143Z,12.91
2022-11-17T08:54:41.281Z,12.96
2022-11-17T08:56:46.127Z,12.94
2022-11-17T08:58:50.208Z,12.92
2022-11-17T09:00:53.428Z,12.95
2022-11-17T09:02:58.263Z,12.96
2022-11-17T09:05:01.464Z,12.98
2022-11-17T09:07:04.616Z,13.01
2022-11-17T09:09:07.970Z,13.10
2022-11-17T09:11:12.289Z,13.18
2022-11-17T09:13:18.581Z,13.15
2022-11-17T09:15:22.168Z,13.11
2022-11-17T09:17:25.348Z,13.09
2022-11-17T09:19:30.472Z,13.09
2022-11-17T09:21:33.870Z,13.01
2022-11-17T09:23:38.097Z,13.01
2022-11-17T09:25:41.513Z,12.98
2022-11-17T09:27:44.621Z,12.97
2022-11-17T09:29:47.988Z,13.00
2022-11-17T09:31:51.221Z,12.99
2022-11-17T09:33:54.459Z,12.90
2022-11-17T09:35:59.432Z,12.89
2022-11-17T09:38:02.522Z,12.88
2022-11-17T09:40:06.589Z,12.86
2022-11-17T09:42:14.764Z,12.85
2022-11-17T09:44:25.802Z,12.84
2022-11-17T09:46:33.290Z,12.79
2022-11-17T09:48:41.901Z,12.74
2022-11-17T09:50:46.320Z,12.71
2022-11-17T09:53:00.807Z,12.68
2022-11-17T09:55:33.931Z,12.65
2022-11-17T09:57:48.933Z,12.61
2022-11-17T10:00:03.774Z,12.67
2022-11-17T10:02:11.881Z,12.68
2022-11-17T10:04:17.079Z,12.75
2022-11-17T10:06:22.084Z,12.74
2022-11-17T10:08:33.588Z,12.73
2022-11-17T10:10:41.391Z,12.73
2022-11-17T10:12:50.219Z,12.70
2022-11-17T10:14:53.555Z,12.73
2022-11-17T10:16:58.433Z,12.72
2022-11-17T10:19:03.179Z,12.75
2022-11-17T10:21:08.140Z,12.72
2022-11-17T10:23:15.048Z,12.72
2022-11-17T10:25:46.420Z,12.76
2022-11-17T10:27:53.847Z,12.80
2022-11-17T10:29:58.549Z,12.83
2022-11-17T10:32:04.564Z,12.91
2022-11-17T10:34:09.437Z,12.98
2022-11-17T10:36:19.350Z,13.18
2022-11-17T10:38:23.755Z,13.47
2022-11-17T10:40:27.780Z,13.50
2022-11-17T10:42:32.380Z,13.50
2022-11-17T10:44:35.497Z,13.50
2022-11-17T10:47:01.772Z,13.43
2022-11-17T10:49:22.942Z,13.37
2022-11-17T10:51:27.500Z,13.36
2022-11-17T10:53:35.919Z,13.44
2022-11-17T10:55:44.037Z,13.46
2022-11-17T10:57:51.626Z,13.52
2022-11-17T10:59:57.662Z,13.58
2022-11-17T11:02:26.093Z,13.62
2022-11-17T11:04:32.561Z,13.65
2022-11-17T11:06:36.324Z,13.68
2022-11-17T11:08:52.689Z,13.65
2022-11-17T11:10:56.924Z,13.62
2022-11-17T11:13:07.500Z,13.52
2022-11-17T11:15:16.332Z,13.41
2022-11-17T11:17:20.387Z,13.41
2022-11-17T11:19:23.580Z,13.46
2022-11-17T11:21:40.684Z,13.48
2022-11-17T11:23:52.383Z,13.51
2022-11-17T11:25:59.927Z,13.54
2022-11-17T11:28:14.599Z,13.54
2022-11-17T11:30:19.372Z,13.61
2022-11-17T11:32:27.530Z,13.65
2022-11-17T11:35:05.719Z,13.65
2022-11-17T11:37:10.425Z,13.59
2022-11-17T11:39:22.985Z,13.67
2022-11-17T11:41:47.784Z,13.62
2022-11-17T11:44:00.768Z,13.54
2022-11-17T11:46:10.825Z,13.48
2022-11-17T11:48:17.761Z,13.46
2022-11-17T11:50:23.191Z,13.50
2022-11-17T11:52:28.865Z,13.56
2022-11-17T11:54:38.175Z,13.63
2022-11-17T11:56:46.023Z,13.72
2022-11-17T11:58:55.156Z,13.70
2022-11-17T12:01:03.286Z,13.65
2022-11-17T12:03:15.092Z,13.66
2022-11-17T12:05:24.577Z,13.63
2022-11-17T12:07:34.688Z,13.57
2022-11-17T12:09:54.423Z,13.49
2022-11-17T12:12:03.223Z,13.51
2022-11-17T12:14:08.253Z,13.56
2022-11-17T12:16:21.208Z,13.59
2022-11-17T12:18:33.378Z,13.61
2022-11-17T12:20:55.325Z,13.70
2022-11-17T12:23:10.380Z,13.90
2022-11-17T12:25:18.632Z,14.02
2022-11-17T12:27:43.422Z,14.05
2022-11-17T12:29:48.394Z,14.00
2022-11-17T12:31:52.572Z,14.05
2022-11-17T12:34:24.088Z,14.02
2022-11-17T12:36:31.173Z,14.06
2022-11-17T12:38:43.841Z,14.13
2022-11-17T12:40:47.745Z,14.14
2022-11-17T12:43:20.472Z,14.12
2022-11-17T12:45:24.869Z,14.09
2022-11-17T12:47:33.251Z,14.05
2022-11-17T12:49:42.650Z,13.94
2022-11-17T12:51:54.159Z,13.90
2022-11-17T12:54:04.427Z,13.93
2022-11-17T12:56:38.553Z,13.96
2022-11-17T12:58:49.963Z,14.07
2022-11-17T13:01:03.375Z,14.15
2022-11-17T13:03:10.761Z,14.30
2022-11-17T13:05:18.729Z,14.44
2022-11-17T13:07:23.953Z,14.55
2022-11-17T13:09:28.622Z,14.67
2022-11-17T13:11:31.671Z,14.74
2022-11-17T13:13:37.003Z,14.55
2022-11-17T13:15:42.103Z,14.46
2022-11-17T13:17:47.166Z,14.38
2022-11-17T13:19:59.522Z,14.37
2022-11-17T13:22:05.677Z,14.42
2022-11-17T13:24:09.661Z,14.44
2022-11-17T13:26:20.845Z,14.43
2022-11-17T13:28:28.797Z,14.43
2022-11-17T13:30:32.815Z,14.45
2022-11-17T13:32:36.151Z,14.49
2022-11-17T13:34:51.508Z,14.47
2022-11-17T13:36:55.388Z,14.44
2022-11-17T13:39:00.598Z,14.36
2022-11-17T13:41:04.254Z,14.32
2022-11-17T13:43:08.972Z,14.32
2022-11-17T13:45:14.834Z,14.30
2022-11-17T13:47:21.699Z,14.27
2022-11-17T13:49:31.924Z,14.27
2022-11-17T13:51:39.572Z,14.24
2022-11-17T13:53:43.498Z,14.21
2022-11-17T13:55:47.360Z,14.20
2022-11-17T13:57:56.723Z,14.20
2022-11-17T14:00:01.455Z,14.20
2022-11-17T14:02:29.564Z,14.16
2022-11-17T14:04:32.663Z,14.13
2022-11-17T14:06:58.111Z,14.17
2022-11-17T14:09:06.389Z,14.17
2022-11-17T14:11:21.292Z,14.20
2022-11-17T14:13:29.953Z,14.22
2022-11-17T14:15:35.293Z,14.27
2022-11-17T14:17:38.781Z,14.26
2022-11-17T14:19:41.853Z,14.20
2022-11-17T14:22:00.357Z,14.15
2022-11-17T14:24:06.536Z,14.12
2022-11-17T14:26:20.759Z,14.06
2022-11-17T14:28:24.483Z,14.02
2022-11-17T14:30:27.602Z,14.04
2022-11-17T14:32:32.253Z,14.00
2022-11-17T14:34:35.354Z,13.97
2022-11-17T14:36:39.259Z,13.96
2022-11-17T14:38:44.109Z,13.95
2022-11-17T14:40:47.400Z,13.93
2022-11-17T14:42:50.473Z,13.91
2022-11-17T14:44:53.545Z,13.87
2022-11-17T14:46:56.728Z,13.89
2022-11-17T14:48:59.866Z,13.92
2022-11-17T14:51:03.112Z,13.94
2022-11-17T14:53:06.265Z,13.95
2022-11-17T14:55:11.559Z,13.99
2022-11-17T14:57:14.644Z,14.01
2022-11-17T14:59:18.026Z,14.01
2022-11-17T15:01:25.320Z,14.01
2022-11-17T15:03:28.453Z,14.04
2022-11-17T15:05:31.495Z,14.04
2022-11-17T15:07:34.822Z,14.02
2022-11-17T15:09:37.995Z,14.01
2022-11-17T15:11:42.514Z,13.98
2022-11-17T15:13:45.589Z,13.90
2022-11-17T15:15:48.642Z,13.89
2022-11-17T15:17:51.807Z,13.91
2022-11-17T15:19:55.711Z,13.94
2022-11-17T15:21:58.740Z,13.96
2022-11-17T15:24:03.376Z,13.98
2022-11-17T15:26:07.550Z,14.01
2022-11-17T15:28:15.303Z,14.00
2022-11-17T15:30:21.979Z,13.98
2022-11-17T15:32:25.350Z,13.94
2022-11-17T15:34:28.446Z,13.95
2022-11-17T15:36:31.949Z,13.99
2022-11-17T15:38:35.551Z,13.99
2022-11-17T15:40:38.856Z,13.99
2022-11-17T15:42:41.910Z,13.94
2022-11-17T15:44:46.394Z,13.88
2022-11-17T15:46:49.476Z,13.87
2022-11-17T15:48:52.902Z,13.85
2022-11-17T15:50:59.584Z,13.88
2022-11-17T15:53:04.413Z,13.87
2022-11-17T15:55:08.802Z,13.86
2022-11-17T15:57:11.848Z,13.84
2022-11-17T15:59:15.197Z,13.85
2022-11-17T16:01:28.428Z,13.85
2022-11-17T16:03:31.446Z,13.83
2022-11-17T16:05:34.649Z,13.79
2022-11-17T16:07:37.915Z,13.79
2022-11-17T16:09:42.248Z,13.77
2022-11-17T16:11:46.976Z,13.76
2022-11-17T16:13:52.574Z,13.73
2022-11-17T16:15:55.956Z,13.72
2022-11-17T16:18:00.350Z,13.72
2022-11-17T16:20:03.360Z,13.69
2022-11-17T16:22:06.493Z,13.70
2022-11-17T16:24:11.781Z,13.71
2022-11-17T16:26:16.219Z,13.68
2022-11-17T16:28:19.373Z,13.69
2022-11-17T16:30:22.429Z,13.69
2022-11-17T16:32:25.427Z,13.70
2022-11-17T16:34:29.876Z,13.71
2022-11-17T16:36:36.539Z,13.72
2022-11-17T16:38:55.094Z,13.72
2022-11-17T16:41:03.244Z,13.72
2022-11-17T16:43:06.489Z,13.68
2022-11-17T16:45:09.844Z,13.66
2022-11-17T16:47:12.797Z,13.64
2022-11-17T16:49:17.873Z,13.63
2022-11-17T16:51:23.125Z,13.61
2022-11-17T16:53:26.179Z,13.57
2022-11-17T16:55:29.314Z,13.55
2022-11-17T16:57:33.158Z,13.54
2022-11-17T16:59:40.047Z,13.52
2022-11-17T17:01:43.087Z,13.51
2022-11-17T17:03:46.292Z,13.50
2022-11-17T17:05:49.569Z,13.52
2022-11-17T17:07:53.924Z,13.52
2022-11-17T17:09:57.081Z,13.52
2022-11-17T17:12:00.181Z,13.52
2022-11-17T17:14:05.063Z,13.49
2022-11-17T17:16:10.341Z,13.48
2022-11-17T17:18:13.843Z,13.43
2022-11-17T17:20:17.273Z,13.35
2022-11-17T17:22:20.526Z,13.24
2022-11-17T17:24:25.001Z,13.21
2022-11-17T17:26:30.845Z,13.20
2022-11-17T17:28:34.799Z,13.18
2022-11-17T17:30:37.920Z,13.18
2022-11-17T17:32:40.952Z,13.16
2022-11-17T17:34:44.021Z,13.16
2022-11-17T17:36:47.267Z,13.16
2022-11-17T17:38:55.418Z,13.15
2022-11-17T17:41:05.693Z,13.15
2022-11-17T17:43:08.708Z,13.13
2022-11-17T17:45:12.729Z,13.08
2022-11-17T17:47:16.267Z,13.06
2022-11-17T17:49:20.184Z,13.05
2022-11-17T17:51:25.097Z,13.04
2022-11-17T17:53:28.191Z,13.03
2022-11-17T17:55:31.232Z,13.02
2022-11-17T17:57:37.256Z,13.00
2022-11-17T17:59:40.581Z,13.00
2022-11-17T18:01:46.208Z,12.99
2022-11-17T18:03:54.206Z,12.98
2022-11-17T18:06:00.209Z,12.97
2022-11-17T18:08:04.799Z,12.94
2022-11-17T18:10:08.800Z,12.90
2022-11-17T18:12:11.951Z,12.90
2022-11-17T18:14:17.270Z,12.89
2022-11-17T18:16:23.704Z,12.88
2022-11-17T18:18:26.812Z,12.88
2022-11-17T18:20:29.959Z,12.86
2022-11-17T18:22:33.367Z,12.86
2022-11-17T18:24:36.480Z,12.87
2022-11-17T18:26:46.938Z,12.86
2022-11-17T18:28:52.514Z,12.87
2022-11-17T18:30:57.093Z,12.87
2022-11-17T18:33:02.962Z,12.85
2022-11-17T18:35:07.201Z,12.85
2022-11-17T18:37:10.355Z,12.84
2022-11-17T18:39:13.758Z,12.86
2022-11-17T18:41:18.424Z,12.89
2022-11-17T18:43:21.548Z,12.88
2022-11-17T18:45:24.697Z,12.89
2022-11-17T18:47:29.089Z,12.91
2022-11-17T18:49:34.520Z,12.89
2022-11-17T18:51:37.659Z,12.88
2022-11-17T18:53:41.918Z,12.85
2022-11-17T18:55:44.946Z,12.88
2022-11-17T18:57:48.763Z,12.81
2022-11-17T18:59:53.315Z,12.76
2022-11-17T19:01:56.362Z,12.75
2022-11-17T19:04:01.951Z,12.75
2022-11-17T19:06:05.951Z,12.76
2022-11-17T19:08:09.043Z,12.79
2022-11-17T19:10:12.026Z,12.82
2022-11-17T19:12:15.183Z,12.78
2022-11-17T19:14:18.213Z,12.78
2022-11-17T19:16:22.570Z,12.80
2022-11-17T19:18:25.754Z,12.81
2022-11-17T19:20:30.414Z,12.82
2022-11-17T19:22:35.234Z,12.81
2022-11-17T19:24:39.734Z,12.79
2022-11-17T19:26:43.332Z,12.79
2022-11-17T19:28:47.791Z,12.79
2022-11-17T19:30:50.910Z,12.81
2022-11-17T19:32:54.699Z,12.80
2022-11-17T19:35:04.831Z,12.79
2022-11-17T19:37:16.499Z,12.77
2022-11-17T19:39:20.243Z,12.72
2022-11-17T19:41:25.230Z,12.64
2022-11-17T19:43:30.854Z,12.59
2022-11-17T19:45:34.724Z,12.56
2022-11-17T19:47:37.780Z,12.56
2022-11-17T19:49:40.924Z,12.57
2022-11-17T19:51:44.219Z,12.56
2022-11-17T19:53:49.134Z,12.56
2022-11-17T19:55:52.664Z,12.54
2022-11-17T19:57:55.916Z,12.54
2022-11-17T19:59:59.125Z,12.54
2022-11-17T20:02:02.450Z,12.54
2022-11-17T20:04:06.637Z,12.51
2022-11-17T20:06:11.864Z,12.48
2022-11-17T20:08:15.160Z,12.48
2022-11-17T20:10:20.367Z,12.48
2022-11-17T20:12:23.669Z,12.51
2022-11-17T20:14:26.810Z,12.50
2022-11-17T20:16:30.487Z,12.50
2022-11-17T20:18:33.640Z,12.48
2022-11-17T20:20:37.880Z,12.46
2022-11-17T20:22:40.998Z,12.45
2022-11-17T20:24:44.374Z,12.42
2022-11-17T20:26:49.118Z,12.40
2022-11-17T20:28:52.299Z,12.36
2022-11-17T20:30:55.460Z,12.28
2022-11-17T20:32:58.925Z,12.23
2022-11-17T20:35:02.136Z,12.19
2022-11-17T20:37:05.292Z,12.18
2022-11-17T20:39:08.564Z,12.17
2022-11-17T20:41:11.960Z,12.19
2022-11-17T20:43:16.377Z,12.20
2022-11-17T20:45:19.469Z,12.19
2022-11-17T20:47:27.472Z,12.19
2022-11-17T20:49:30.685Z,12.16
2022-11-17T20:51:33.827Z,12.13
2022-11-17T20:53:37.030Z,12.11
2022-11-17T20:55:40.120Z,12.10
2022-11-17T20:57:43.306Z,12.14
2022-11-17T20:59:47.827Z,12.14
2022-11-17T21:01:50.986Z,12.16
2022-11-17T21:03:54.144Z,12.14
2022-11-17T21:05:59.404Z,12.13
2022-11-17T21:08:02.749Z,12.14
2022-11-17T21:10:06.286Z,12.13
2022-11-17T21:12:09.693Z,12.12
2022-11-17T21:14:13.895Z,12.03
2022-11-17T21:16:18.464Z,11.95
2022-11-17T21:18:26.600Z,11.84
2022-11-17T21:20:29.697Z,11.64
2022-11-17T21:22:34.128Z,11.53
2022-11-17T21:24:37.264Z,11.34
2022-11-17T21:26:40.339Z,11.24
2022-11-17T21:28:43.412Z,11.20
2022-11-17T21:30:46.476Z,11.18
2022-11-17T21:32:50.941Z,11.14
2022-11-17T21:34:54.256Z,11.02
2022-11-17T21:36:57.347Z,10.91
2022-11-17T21:39:00.907Z,10.91
2022-11-17T21:41:04.750Z,10.85
2022-11-17T21:43:07.849Z,10.82
2022-11-17T21:45:11.717Z,10.79
2022-11-17T21:47:14.844Z,10.83
2022-11-17T21:49:19.508Z,10.83
2022-11-17T21:51:24.634Z,10.75
2022-11-17T21:53:27.772Z,10.81
2022-11-17T21:55:31.073Z,10.85
2022-11-17T21:57:34.064Z,10.89
2022-11-17T21:59:37.069Z,10.82
2022-11-17T22:01:40.602Z,10.78
2022-11-17T22:03:44.048Z,10.70
2022-11-17T22:05:50.096Z,10.63
2022-11-17T22:08:25.322Z,10.65
2022-11-17T22:12:51.114Z,10.80
2022-11-17T22:14:54.611Z,10.85
2022-11-17T22:16:57.863Z,10.89
2022-11-17T22:19:09.907Z,10.90
2022-11-17T22:21:33.484Z,10.90
2022-11-17T22:23:39.477Z,10.92
2022-11-17T22:25:45.489Z,10.95
2022-11-17T22:27:49.281Z,10.94
2022-11-17T22:29:52.381Z,10.96
2022-11-17T22:31:55.443Z,10.99
2022-11-17T22:33:58.769Z,10.96
2022-11-17T22:36:02.046Z,10.92
2022-11-17T22:38:06.450Z,10.85
2022-11-17T22:40:09.885Z,10.84
2022-11-17T22:42:14.233Z,10.86
2022-11-17T22:44:17.845Z,10.87
2022-11-17T22:46:21.780Z,10.84
2022-11-17T22:48:24.934Z,10.83
2022-11-17T22:50:28.045Z,10.85
2022-11-17T22:52:31.226Z,10.87
2022-11-17T22:54:36.126Z,10.91
2022-11-17T22:56:39.255Z,10.92
2022-11-17T22:58:46.577Z,10.94
2022-11-17T23:00:53.110Z,10.96
2022-11-17T23:02:56.377Z,10.95
2022-11-17T23:04:59.562Z,10.92
2022-11-17T23:07:02.684Z,10.95
2022-11-17T23:09:05.960Z,10.99
2022-11-17T23:11:35.604Z,11.00
2022-11-17T23:13:34.190Z,11.02
2022-11-17T23:15:39.655Z,11.00
2022-11-17T23:17:43.022Z,11.01
2022-11-17T23:19:46.019Z,11.04
2022-11-17T23:21:49.211Z,11.04
2022-11-17T23:23:52.428Z,11.06
2022-11-17T23:25:55.625Z,11.07
2022-11-17T23:28:00.093Z,11.09
2022-11-17T23:30:03.105Z,11.11
2022-11-17T23:32:06.632Z,11.11
2022-11-17T23:34:10.597Z,11.11
2022-11-17T23:36:15.106Z,11.14
2022-11-17T23:38:18.335Z,11.15
2022-11-17T23:40:21.424Z,11.13
2022-11-17T23:42:27.499Z,11.12
2022-11-17T23:44:35.851Z,11.15
2022-11-17T23:46:38.907Z,11.17
2022-11-17T23:48:42.141Z,11.17
2022-11-17T23:50:45.233Z,11.18
2022-11-17T23:52:48.275Z,11.16
2022-11-17T23:54:51.350Z,11.15
2022-11-17T23:56:54.431Z,11.15
2022-11-17T23:58:57.451Z,11.17
